Time;durP1;ratioP1;P1;durP2;ratioP2;P2;SDS_P1;SDS_P2;PMS_P1;PMS_P2;Temp;Humidity;BMP_temperature;BMP_pressure;BME280_temperature;BME280_humidity;BME280_pressure;Samples;Min_cycle;Max_cycle;Signal;HPM_P1;HPM_P2
2021/09/11 00:06:06;;;;;;;9.65;7.97;;;;;;;20.12;72.86;99920.16;1088222;54;20070;-83
2021/09/11 00:07:08;;;;;;;;;;;;;;;20.08;72.82;99927.88;1088766;54;20041;-82
2021/09/11 00:08:42;;;;;;;9.07;7.57;;;;;;;20.01;72.35;99929.75;1088623;54;19949;-82
2021/09/11 00:09:44;;;;;;;8.55;7.63;;;;;;;20.20;72.42;99922.66;1088609;54;20067;-83
2021/09/11 00:11:13;;;;;;;9.43;8.35;;;;;;;20.10;71.27;99923.94;1088471;54;20041;-82
2021/09/11 00:32:14;;;;;;;8.15;7.35;;;;;;;20.01;70.95;99929.75;1087833;54;20018;-84
2021/09/11 00:33:18;;;;;;;11.05;7.20;;;;;;;20.14;70.81;99927.03;1088595;54;20014;-82
2021/09/11 00:34:35;;;;;;;10.55;7.25;;;;;;;20.06;70.66;99925.38;1088531;54;20025;-84
2021/09/11 00:35:37;;;;;;;7.75;6.38;;;;;;;20.18;70.47;99925.56;1088684;54;20023;-84
2021/09/11 00:37:03;;;;;;;7.78;6.85;;;;;;;20.17;70.54;99926.59;1088460;54;20063;-83
2021/09/11 00:38:07;;;;;;;8.30;6.70;;;;;;;20.15;70.64;99928.72;1088444;54;20022;-84
2021/09/11 00:39:40;;;;;;;10.38;6.93;;;;;;;20.11;70.86;99935.59;1088559;54;20019;-84
2021/09/11 00:40:44;;;;;;;10.10;6.82;;;;;;;20.07;70.86;99927.03;1088503;54;20023;-84
2021/09/11 00:42:24;;;;;;;9.35;7.10;;;;;;;20.04;71.36;99930.16;1088592;54;20022;-84
2021/09/11 00:43:27;;;;;;;7.47;6.45;;;;;;;20.08;70.92;99920.56;1088522;54;20034;-84
2021/09/11 00:44:41;;;;;;;12.18;6.97;;;;;;;19.98;71.34;99930.19;1088460;54;20086;-85
2021/09/11 00:45:42;;;;;;;8.40;6.93;;;;;;;20.05;71.17;99923.69;1088424;54;20046;-82
2021/09/11 00:47:01;;;;;;;8.00;7.20;;;;;;;20.04;70.70;99924.75;1088563;54;20030;-85
2021/09/11 00:48:05;;;;;;;8.55;7.25;;;;;;;19.95;71.08;99932.28;1088552;54;20023;-84
2021/09/11 00:49:18;;;;;;;9.20;6.45;;;;;;;20.03;70.66;99927.69;1088507;54;20023;-84
2021/09/11 00:50:21;;;;;;;9.82;7.00;;;;;;;19.96;71.15;99933.09;1088512;54;20035;-84
2021/09/11 00:53:41;;;;;;;8.60;6.88;;;;;;;19.79;71.19;99929.94;1088407;54;20046;-84
2021/09/11 00:54:43;;;;;;;9.02;6.78;;;;;;;19.84;71.01;99930.16;1088359;54;20035;-84
2021/09/11 00:57:34;;;;;;;8.90;7.22;;;;;;;19.67;71.14;99923.47;1088571;54;20042;-82
2021/09/11 01:00:45;;;;;;;8.52;6.85;;;;;;;19.70;70.95;99923.91;1088568;54;20039;-84
2021/09/11 01:01:47;;;;;;;9.25;7.15;;;;;;;19.70;71.14;99923.03;1088563;54;20038;-82
2021/09/11 01:02:52;;;;;;;8.23;6.60;;;;;;;19.77;70.68;99926.63;1088478;54;20085;-83
2021/09/11 01:33:29;;;;;;;7.63;5.90;;;;;;;19.91;69.76;99941.03;1087955;54;20014;-83
2021/09/11 01:34:33;;;;;;;8.38;6.97;;;;;;;19.79;70.21;99941.63;1088433;54;20042;-82
2021/09/11 01:35:48;;;;;;;8.00;6.65;;;;;;;19.82;70.05;99940.38;1088425;54;20049;-82
2021/09/11 01:36:49;;;;;;;8.63;7.32;;;;;;;19.90;69.71;99944.81;1095789;39;20701;-82
2021/09/11 01:38:00;;;;;;;9.18;6.97;;;;;;;19.76;70.03;99939.31;1088593;54;20033;-84
2021/09/11 01:39:02;;;;;;;7.25;6.32;;;;;;;19.91;69.69;99938.34;1089413;39;20483;-85
2021/09/11 01:40:48;;;;;;;8.23;6.00;;;;;;;19.71;69.85;99935.56;1088484;54;20022;-82
2021/09/11 01:41:50;;;;;;;8.65;6.78;;;;;;;19.57;70.58;99940.16;1088437;54;20025;-81
2021/09/11 01:43:19;;;;;;;8.18;6.28;;;;;;;19.68;70.10;99942.25;1088502;54;20029;-83
2021/09/11 01:44:20;;;;;;;9.85;6.50;;;;;;;19.52;70.39;99942.66;1088454;54;20022;-82
2021/09/11 01:45:30;;;;;;;7.95;6.28;;;;;;;19.54;70.33;99943.28;1088376;54;20042;-82
2021/09/11 01:46:31;;;;;;;8.43;6.22;;;;;;;19.46;70.63;99947.84;1088421;54;20019;-82
2021/09/11 01:47:58;;;;;;;7.20;6.03;;;;;;;19.45;70.66;99945.34;1088399;54;20086;-82
2021/09/11 01:49:00;;;;;;;7.78;6.38;;;;;;;19.61;70.27;99944.13;1088258;54;20026;-83
2021/09/11 01:51:50;;;;;;;6.82;5.45;;;;;;;19.51;70.43;99952.63;1088465;54;20019;-84
2021/09/11 01:52:52;;;;;;;7.05;5.95;;;;;;;19.59;70.38;99938.06;1088385;54;20096;-82
2021/09/11 01:53:59;;;;;;;6.80;5.57;;;;;;;19.68;69.95;99942.25;1088468;54;20097;-83
2021/09/11 01:55:11;;;;;;;7.32;5.95;;;;;;;19.77;69.80;99938.28;1088387;54;20041;-83
2021/09/11 01:56:16;;;;;;;8.50;6.25;;;;;;;19.77;69.70;99941.00;1088411;54;20034;-83
2021/09/11 01:59:06;;;;;;;8.32;5.82;;;;;;;19.64;69.79;99946.44;1088499;54;20027;-85
2021/09/11 02:00:41;;;;;;;7.82;5.63;;;;;;;19.54;69.89;99951.41;1088402;54;20038;-82
2021/09/11 02:01:42;;;;;;;7.25;5.63;;;;;;;19.61;69.82;99957.69;1088398;54;20029;-83
2021/09/11 02:02:50;;;;;;;6.63;5.40;;;;;;;19.82;69.16;99948.50;1088347;54;20099;-84
2021/09/11 02:03:51;;;;;;;7.20;6.15;;;;;;;19.66;69.67;99948.91;1088382;54;20039;-83
2021/09/11 02:04:58;;;;;;;6.47;5.50;;;;;;;19.80;69.43;99961.44;1088271;54;20082;-84
2021/09/11 02:06:00;;;;;;;7.47;5.72;;;;;;;19.73;69.73;99949.75;1088298;54;20030;-83
2021/09/11 02:07:08;;;;;;;8.45;5.70;;;;;;;19.68;69.80;99953.09;1088315;54;20057;-83
2021/09/11 02:08:10;;;;;;;6.60;5.47;;;;;;;19.72;69.75;99954.38;1088454;54;20022;-84
2021/09/11 02:09:14;;;;;;;7.50;5.80;;;;;;;19.78;69.69;99956.22;1088295;54;20022;-82
2021/09/11 02:10:17;;;;;;;8.45;5.75;;;;;;;19.70;69.92;99956.44;1089241;39;20614;-83
2021/09/11 02:11:25;;;;;;;8.07;5.55;;;;;;;19.67;69.95;99956.03;1088312;54;20031;-83
2021/09/11 02:12:27;;;;;;;7.72;5.85;;;;;;;19.70;69.80;99951.00;1108708;39;20658;-83
2021/09/11 02:13:31;;;;;;;6.60;5.03;;;;;;;19.74;69.58;99954.97;1088348;54;20025;-84
2021/09/11 02:28:43;;;;;;;7.95;5.65;;;;;;;19.61;70.06;99963.91;1087712;54;20037;-84
2021/09/11 02:29:44;;;;;;;7.20;5.57;;;;;;;19.71;69.90;99957.25;1088324;54;20082;-82
2021/09/11 02:30:56;;;;;;;7.28;5.25;;;;;;;19.66;70.08;99954.34;1088241;54;20789;-83
2021/09/11 02:48:35;;;;;;;7.47;4.97;;;;;;;19.63;69.96;99952.88;1076514;54;20053;-82
2021/09/11 02:49:37;;;;;;;5.80;4.63;;;;;;;19.72;69.84;99961.66;1088359;54;20061;-83
2021/09/11 02:50:42;;;;;;;6.05;5.00;;;;;;;19.74;69.75;99952.25;1088289;54;20026;-82
2021/09/11 02:51:44;;;;;;;6.88;4.82;;;;;;;19.68;69.79;99958.50;1088257;54;20038;-83
2021/09/11 02:53:02;;;;;;;5.88;4.97;;;;;;;19.64;70.20;99957.28;1088337;54;20286;-82
2021/09/11 02:54:04;;;;;;;7.32;5.35;;;;;;;19.68;70.02;99966.66;1088200;54;20087;-84
2021/09/11 02:55:14;;;;;;;5.68;4.60;;;;;;;19.70;70.17;99961.84;1090175;47;20014;-83
2021/09/11 02:56:15;;;;;;;6.10;4.65;;;;;;;19.75;70.04;99955.81;1088274;54;20038;-82
2021/09/11 02:57:20;;;;;;;6.13;5.13;;;;;;;19.72;70.23;99958.94;1088229;54;20031;-83
2021/09/11 03:49:10;;;;;;;5.55;4.60;;;;;;;19.01;75.95;99970.03;1090897;46;20038;-81
2021/09/11 03:50:21;;;;;;;6.22;4.93;;;;;;;18.88;76.33;99969.94;1087199;54;20034;-84
2021/09/11 03:51:25;;;;;;;8.23;5.03;;;;;;;18.98;76.05;99969.59;1088547;54;20022;-84
2021/09/11 03:52:33;;;;;;;5.40;4.35;;;;;;;19.00;75.68;99973.78;1088648;54;20082;-84
2021/09/11 03:53:37;;;;;;;5.63;4.18;;;;;;;19.06;75.36;99972.13;1088537;54;20069;-84
2021/09/11 03:54:39;;;;;;;6.47;4.70;;;;;;;19.04;75.36;99973.34;1088479;54;20038;-83
2021/09/11 04:52:21;;;;;;;5.88;4.20;;;;;;;18.92;76.49;99983.91;1088176;54;20619;-83
2021/09/11 04:53:23;;;;;;;5.43;3.88;;;;;;;19.01;76.10;99986.28;1095066;39;20628;-82
2021/09/11 05:55:04;;;;;;;;;;;;;;;18.99;76.46;100011.88;1074513;54;20742;-82
2021/09/11 05:57:39;;;;;;;6.30;4.63;;;;;;;19.01;75.78;100017.94;1092105;39;20473;-78
2021/09/11 07:22:20;;;;;;;5.18;3.42;;;;;;;19.93;72.59;100021.16;1085930;54;20053;-81
2021/09/11 07:23:26;;;;;;;5.28;3.63;;;;;;;20.08;72.29;100034.53;1088077;47;20034;-78
2021/09/11 07:24:30;;;;;;;4.63;3.10;;;;;;;20.25;71.90;100023.25;1087437;54;20067;-79
2021/09/11 07:25:59;;;;;;;5.07;3.22;;;;;;;20.32;71.63;100028.69;1088066;54;20027;-79
2021/09/11 07:27:01;;;;;;;4.57;3.28;;;;;;;20.40;71.56;100026.59;1086328;54;20039;-78
2021/09/11 07:28:06;;;;;;;4.40;3.13;;;;;;;20.49;71.19;100027.22;1087433;46;20054;-79
2021/09/11 07:29:08;;;;;;;4.53;2.90;;;;;;;20.54;71.02;100026.56;1086594;54;20680;-79
2021/09/11 07:32:08;;;;;;;6.00;3.40;;;;;;;20.56;71.14;100033.47;1087047;54;20034;-79
2021/09/11 07:34:12;;;;;;;5.25;3.42;;;;;;;20.45;70.76;100031.38;1087214;54;20060;-80
2021/09/11 07:37:51;;;;;;;7.43;4.07;;;;;;;20.09;72.29;100044.34;1087631;54;20196;-79
2021/09/11 07:39:15;;;;;;;4.90;3.65;;;;;;;20.27;71.60;100042.88;1087353;54;20035;-80
2021/09/11 07:40:55;;;;;;;5.50;3.60;;;;;;;20.42;71.28;100040.78;1086136;54;20043;-78
2021/09/11 07:42:09;;;;;;;5.07;3.35;;;;;;;20.56;70.63;100043.50;1085438;54;20042;-80
2021/09/11 07:43:16;;;;;;;6.68;2.90;;;;;;;20.70;70.33;100036.16;1086928;54;20035;-79
2021/09/11 07:44:36;;;;;;;4.85;3.30;;;;;;;20.70;70.50;100042.41;1088025;54;20018;-80
2021/09/11 07:45:41;;;;;;;5.05;3.47;;;;;;;20.71;70.54;100038.66;1087585;54;20046;-78
2021/09/11 07:46:42;;;;;;;5.28;3.70;;;;;;;20.51;71.12;100043.28;1085786;54;20090;-79
2021/09/11 07:47:48;;;;;;;6.05;3.70;;;;;;;20.58;70.97;100044.13;1086774;31;20636;-79
2021/09/11 07:48:53;;;;;;;5.13;3.88;;;;;;;20.75;70.41;100044.53;1085304;54;20049;-78
2021/09/11 07:49:54;;;;;;;5.38;3.78;;;;;;;20.87;70.28;100042.03;1088392;39;20625;-77
2021/09/11 07:50:59;;;;;;;4.90;3.20;;;;;;;20.96;69.97;100040.75;1086523;46;20093;-79
2021/09/11 07:52:00;;;;;;;4.72;3.30;;;;;;;21.08;69.70;100053.66;1087285;54;20074;-79
2021/09/11 07:53:10;;;;;;;4.78;3.45;;;;;;;20.95;69.54;100039.06;1087337;54;20686;-79
2021/09/11 07:54:14;;;;;;;5.30;3.42;;;;;;;20.81;70.08;100040.13;1087141;54;20031;-78
2021/09/11 07:55:18;;;;;;;5.35;3.58;;;;;;;20.66;70.42;100049.34;1087259;54;20042;-79
2021/09/11 07:56:21;;;;;;;5.82;3.40;;;;;;;20.51;70.85;100048.72;1087242;54;20034;-80
2021/09/11 07:57:25;;;;;;;6.38;4.15;;;;;;;20.46;71.07;100052.06;1087667;54;20034;-79
2021/09/11 07:58:27;;;;;;;4.80;3.42;;;;;;;20.52;70.68;100050.38;1087790;46;20031;-79
2021/09/11 07:59:32;;;;;;;5.70;3.72;;;;;;;20.44;70.91;100053.31;1090693;39;20431;-79
2021/09/11 08:00:33;;;;;;;5.20;3.63;;;;;;;20.57;70.53;100047.88;1087537;54;20042;-78
2021/09/11 08:01:38;;;;;;;5.30;3.22;;;;;;;20.52;70.54;100056.66;1087559;39;20561;-79
2021/09/11 08:02:41;;;;;;;5.00;3.47;;;;;;;20.49;70.22;100046.22;1087441;54;20042;-79
2021/09/11 08:03:45;;;;;;;5.97;3.63;;;;;;;20.71;69.94;100054.97;1086243;54;20065;-79
2021/09/11 08:04:46;;;;;;;4.38;3.17;;;;;;;20.86;69.11;100053.94;1085453;54;20580;-78
2021/09/11 08:05:50;;;;;;;4.95;3.72;;;;;;;20.96;69.07;100048.91;1085203;54;20038;-79
2021/09/11 08:06:53;;;;;;;5.03;3.58;;;;;;;20.77;69.41;100057.94;1086838;54;20065;-80
2021/09/11 08:07:59;;;;;;;5.03;3.40;;;;;;;20.95;69.03;100055.38;1086383;54;20057;-79
2021/09/11 08:09:01;;;;;;;5.18;3.75;;;;;;;21.03;68.46;100057.84;1085222;54;20042;-81
2021/09/11 08:10:08;;;;;;;5.80;3.53;;;;;;;21.06;68.22;100051.16;1085631;39;20493;-79
2021/09/11 08:11:15;;;;;;;5.28;4.15;;;;;;;20.68;69.30;100060.84;1085828;54;20050;-79
2021/09/11 08:12:17;;;;;;;5.72;4.00;;;;;;;20.52;69.61;100055.81;1092896;39;20670;-82
2021/09/11 08:13:22;;;;;;;6.00;4.28;;;;;;;20.70;69.57;100064.16;1087731;54;20045;-80
2021/09/11 08:14:24;;;;;;;5.75;3.75;;;;;;;20.85;69.02;100060.41;1087363;54;20059;-80
2021/09/11 08:15:28;;;;;;;5.88;3.75;;;;;;;20.94;68.39;100056.41;1086672;46;20042;-79
2021/09/11 08:16:30;;;;;;;4.85;3.50;;;;;;;20.99;68.40;100062.03;1085824;54;20566;-79
2021/09/11 08:17:35;;;;;;;4.50;3.50;;;;;;;21.06;67.95;100063.91;1089550;39;20252;-78
2021/09/11 08:18:42;;;;;;;4.82;3.47;;;;;;;21.11;68.23;100064.09;1086427;54;20098;-80
2021/09/11 08:19:44;;;;;;;5.10;3.55;;;;;;;21.02;68.61;100058.91;1086730;54;20030;-80
2021/09/11 08:20:48;;;;;;;5.75;3.90;;;;;;;21.01;68.50;100065.38;1086041;54;20271;-80
2021/09/11 08:21:49;;;;;;;6.18;4.30;;;;;;;20.99;69.00;100061.22;1087114;54;20041;-81
2021/09/11 08:23:06;;;;;;;4.95;3.58;;;;;;;21.07;68.41;100062.84;1088389;46;20015;-81
2021/09/11 08:24:21;;;;;;;5.20;3.78;;;;;;;21.04;68.37;100067.69;1087576;54;20046;-81
2021/09/11 08:25:28;;;;;;;6.43;4.15;;;;;;;20.85;69.17;100066.66;1086517;54;20050;-78
2021/09/11 08:26:30;;;;;;;6.10;4.03;;;;;;;20.92;69.34;100060.41;1087842;54;20035;-81
2021/09/11 08:27:34;;;;;;;5.82;3.97;;;;;;;20.86;69.38;100072.94;1088091;54;20041;-81
2021/09/11 08:28:38;;;;;;;5.28;4.13;;;;;;;20.67;69.77;100070.03;1087897;54;20039;-79
2021/09/11 08:29:45;;;;;;;6.00;4.47;;;;;;;20.70;69.61;100066.88;1092479;46;20022;-81
2021/09/11 08:30:52;;;;;;;5.55;4.30;;;;;;;20.88;69.32;100066.25;1087938;54;20038;-80
2021/09/11 08:32:08;;;;;;;6.97;4.00;;;;;;;20.97;68.82;100068.75;1088423;54;20041;-82
2021/09/11 08:33:15;;;;;;;5.35;4.20;;;;;;;21.02;68.55;100072.50;1088154;54;20049;-81
2021/09/11 08:34:17;;;;;;;4.53;3.40;;;;;;;21.06;68.68;100069.34;1087802;54;20027;-79
2021/09/11 08:35:27;;;;;;;6.07;4.20;;;;;;;20.75;69.44;100074.41;1088850;46;20031;-82
2021/09/11 08:36:29;;;;;;;6.50;4.45;;;;;;;20.72;69.58;100072.09;1088029;54;20030;-82
2021/09/11 08:37:33;;;;;;;6.55;4.03;;;;;;;20.67;69.72;100075.47;1087748;54;20099;-80
2021/09/11 08:40:19;;;;;;;5.78;4.40;;;;;;;20.79;69.61;100074.81;1088211;54;20023;-82
2021/09/11 08:41:29;;;;;;;6.18;3.80;;;;;;;20.80;69.44;100074.63;1089058;39;20561;-82
2021/09/11 08:42:43;;;;;;;;;;;;;;;;;;;;;
2021/09/11 08:43:48;;;;;;;5.57;4.00;;;;;;;20.76;69.20;100076.09;1088031;54;20018;-81
2021/09/11 08:45:08;;;;;;;5.20;4.03;;;;;;;20.87;68.98;100074.63;1093631;39;20672;-83
2021/09/11 08:46:26;;;;;;;5.80;3.88;;;;;;;20.82;68.86;100077.97;1088087;54;20046;-83
2021/09/11 08:47:29;;;;;;;5.82;3.90;;;;;;;20.82;69.12;100071.69;1088050;54;20018;-82
2021/09/11 08:48:40;;;;;;;5.25;4.10;;;;;;;21.03;68.45;100068.72;1087954;54;20018;-83
2021/09/11 08:49:57;;;;;;;7.28;4.70;;;;;;;20.76;69.65;100078.81;1088003;54;20149;-81
2021/09/11 08:50:59;;;;;;;5.85;4.65;;;;;;;20.92;68.87;100080.25;1087298;54;20663;-79
2021/09/11 08:52:07;;;;;;;6.20;4.15;;;;;;;21.04;68.34;100070.41;1088008;54;20021;-81
2021/09/11 08:53:16;;;;;;;5.85;3.63;;;;;;;21.11;68.06;100075.78;1088036;54;20053;-81
2021/09/11 08:54:22;;;;;;;4.93;3.75;;;;;;;21.19;67.96;100066.56;1088032;54;20045;-81
2021/09/11 08:55:24;;;;;;;5.97;4.32;;;;;;;21.26;68.01;100078.25;1087658;54;20058;-81
2021/09/11 08:56:31;;;;;;;5.57;4.30;;;;;;;21.29;67.63;100066.97;1086585;54;20015;-79
2021/09/11 08:57:35;;;;;;;4.80;3.63;;;;;;;21.24;67.66;100069.50;1087226;54;20046;-81
2021/09/11 08:58:50;;;;;;;6.28;3.95;;;;;;;21.00;68.91;100080.00;1086314;54;20058;-79
2021/09/11 08:59:54;;;;;;;7.28;4.78;;;;;;;20.91;68.90;100070.41;1087640;54;20082;-79
2021/09/11 09:00:59;;;;;;;5.60;4.38;;;;;;;20.77;69.69;100079.66;1087789;54;20046;-81
2021/09/11 09:02:05;;;;;;;7.30;4.63;;;;;;;20.85;69.18;100069.38;1088688;46;20671;-80
2021/09/11 09:03:26;;;;;;;5.95;4.38;;;;;;;21.01;68.65;100070.00;1087752;54;20049;-78
2021/09/11 09:05:01;;;;;;;6.22;3.97;;;;;;;20.96;68.55;100067.91;1087623;54;20039;-80
2021/09/11 09:09:21;;;;;;;6.70;4.50;;;;;;;21.02;68.67;100067.06;1087142;54;20859;-80
2021/09/11 09:10:33;;;;;;;6.15;3.90;;;;;;;21.19;67.95;100067.44;1087949;54;20040;-81
2021/09/11 09:11:48;;;;;;;6.32;4.00;;;;;;;21.28;67.96;100067.19;1087964;54;20041;-81
2021/09/11 09:12:53;;;;;;;5.53;3.90;;;;;;;21.41;67.50;100071.72;1087934;54;20046;-81
2021/09/11 09:23:47;;;;;;;5.47;4.10;;;;;;;21.37;67.92;100068.63;1086771;54;20605;-81
2021/09/11 09:26:14;;;;;;;5.90;4.07;;;;;;;21.52;67.43;100065.63;1087269;54;20615;-81
2021/09/11 09:27:20;;;;;;;6.38;4.18;;;;;;;21.58;66.80;100062.06;1087080;54;20054;-80
2021/09/11 09:28:40;;;;;;;6.07;3.97;;;;;;;21.45;67.56;100070.22;1086941;54;20042;-79
2021/09/11 09:29:45;;;;;;;7.00;4.68;;;;;;;;;;1085327;54;20045;-78
2021/09/11 09:30:51;;;;;;;5.57;3.78;;;;;;;21.69;66.59;100054.25;1084240;46;21032;-77
2021/09/11 09:31:59;;;;;;;6.15;4.30;;;;;;;21.49;67.12;100063.31;1084455;54;20065;-78
2021/09/11 09:33:00;;;;;;;8.23;4.65;;;;;;;21.42;67.47;100067.97;1084300;54;20043;-78
2021/09/11 09:34:06;;;;;;;5.63;4.40;;;;;;;21.66;66.83;100056.34;1084911;39;20456;-79
2021/09/11 09:35:25;;;;;;;6.85;4.50;;;;;;;21.61;67.09;100058.06;1086110;54;20030;-80
2021/09/11 09:36:38;;;;;;;5.70;3.90;;;;;;;21.73;66.89;100056.31;1087006;39;20870;-81
2021/09/11 09:37:52;;;;;;;5.53;3.90;;;;;;;21.83;66.44;100055.84;1085211;54;20038;-79
2021/09/11 09:39:07;;;;;;;4.72;3.78;;;;;;;21.92;66.14;100064.59;1086383;54;20036;-81
2021/09/11 09:40:10;;;;;;;6.13;3.83;;;;;;;21.75;66.56;100059.66;1085476;54;20034;-79
2021/09/11 09:41:15;;;;;;;6.18;4.70;;;;;;;21.70;66.80;100066.81;1084539;54;20592;-79
2021/09/11 09:42:22;;;;;;;6.15;4.50;;;;;;;21.56;67.09;100061.41;1085139;54;21086;-79
2021/09/11 09:45:29;;;;;;;8.88;4.40;;;;;;;21.76;66.71;100061.34;1084588;54;20063;-81
2021/09/11 09:46:40;;;;;;;5.88;4.00;;;;;;;21.85;66.28;100067.34;1089161;39;20653;-80
2021/09/11 09:47:59;;;;;;;5.05;3.90;;;;;;;21.74;66.08;100063.44;1087576;54;20041;-80
2021/09/11 09:49:04;;;;;;;5.45;3.95;;;;;;;21.81;66.72;100066.13;1087542;54;20049;-80
2021/09/11 09:50:10;;;;;;;5.15;3.88;;;;;;;21.95;65.73;100058.72;1088120;46;20027;-79
2021/09/11 09:51:13;;;;;;;4.88;3.38;;;;;;;22.06;65.39;100059.88;1087200;54;20019;-79
2021/09/11 09:52:18;;;;;;;5.47;3.47;;;;;;;21.97;65.66;100062.88;1086724;54;20691;-82
2021/09/11 09:53:59;;;;;;;5.05;3.72;;;;;;;22.01;65.51;100062.44;1087854;54;20037;-82
2021/09/11 09:55:03;;;;;;;;;;;;;;;21.81;65.51;100057.97;1092875;39;20559;-82
2021/09/11 09:56:28;;;;;;;5.32;3.40;;;;;;;21.77;65.60;100056.72;1087558;54;19934;-80
2021/09/11 09:57:42;;;;;;;5.53;3.63;;;;;;;21.69;65.50;100055.06;1087467;54;20050;-80
2021/09/11 09:58:49;;;;;;;5.53;3.22;;;;;;;21.79;65.60;100054.63;1087656;54;20058;-81
2021/09/11 09:59:52;;;;;;;4.40;3.05;;;;;;;21.72;65.49;100056.56;1090858;39;20669;-80
2021/09/11 10:00:56;;;;;;;5.40;3.25;;;;;;;21.69;65.43;100049.63;1087733;54;20030;-81
2021/09/11 10:02:04;;;;;;;5.35;3.00;;;;;;;21.83;65.03;100047.66;1087852;54;20046;-84
2021/09/11 10:03:28;;;;;;;5.45;3.65;;;;;;;22.01;64.14;100057.00;1086917;54;20023;-81
2021/09/11 10:04:37;;;;;;;5.35;3.20;;;;;;;22.15;63.42;100052.28;1084661;54;20046;-78
2021/09/11 10:05:42;;;;;;;5.20;3.30;;;;;;;22.22;63.75;100059.34;1085461;54;20098;-80
2021/09/11 10:06:50;;;;;;;5.20;2.90;;;;;;;22.37;63.21;100050.00;1086794;54;20034;-77
2021/09/11 10:07:59;;;;;;;4.65;2.67;;;;;;;22.38;62.94;100051.69;1086988;54;20060;-81
2021/09/11 10:09:31;;;;;;;4.85;3.00;;;;;;;22.18;63.13;100047.22;1087105;54;20026;-80
2021/09/11 10:10:38;;;;;;;6.10;3.40;;;;;;;22.07;63.44;100050.66;1086715;54;20049;-80
2021/09/11 10:11:49;;;;;;;4.75;3.10;;;;;;;22.37;63.13;100052.72;1087354;54;20746;-80
2021/09/11 10:13:22;;;;;;;5.43;2.97;;;;;;;22.51;62.00;100043.41;1087495;39;20594;-83
2021/09/11 10:14:34;;;;;;;4.07;2.67;;;;;;;22.72;61.77;100052.22;1085503;54;20601;-76
2021/09/11 10:15:50;;;;;;;4.60;3.20;;;;;;;22.80;61.95;100049.19;1087270;54;21380;-78
2021/09/11 10:17:02;;;;;;;5.00;3.13;;;;;;;22.64;61.10;100044.34;1086967;47;20041;-77
2021/09/11 10:18:38;;;;;;;4.75;3.30;;;;;;;23.02;60.74;100038.69;1087187;54;20042;-76
2021/09/11 10:19:46;;;;;;;5.07;3.35;;;;;;;23.46;60.34;100037.78;1089801;47;20030;-77
2021/09/11 10:21:34;;;;;;;;;;;;;;;;;;;;;
2021/09/11 10:22:43;;;;;;;5.47;3.28;;;;;;;23.80;59.43;100035.41;1087293;54;20031;-78
2021/09/11 10:25:44;;;;;;;5.53;3.13;;;;;;;23.53;58.95;100036.59;1086874;54;20063;-78
2021/09/11 10:26:59;;;;;;;4.35;2.80;;;;;;;23.62;58.81;100033.56;1086993;54;20403;-79
2021/09/11 10:28:17;;;;;;;4.78;3.17;;;;;;;23.43;58.52;100033.59;1086809;54;20038;-79
2021/09/11 10:29:43;;;;;;;4.60;2.80;;;;;;;23.32;59.27;100045.31;1086826;54;20066;-78
2021/09/11 10:31:06;;;;;;;5.97;3.30;;;;;;;22.97;59.85;100043.16;1087065;54;20042;-78
2021/09/11 10:32:29;;;;;;;4.70;2.95;;;;;;;22.96;60.71;100038.75;1087088;54;20042;-79
2021/09/11 10:33:44;;;;;;;4.35;2.75;;;;;;;22.99;59.90;100036.44;1088503;47;20050;-76
2021/09/11 10:34:51;;;;;;;4.57;2.85;;;;;;;23.26;59.77;100035.28;1087018;54;20038;-76
2021/09/11 10:35:55;;;;;;;5.97;3.08;;;;;;;22.96;60.38;100036.03;1087231;54;20031;-77
2021/09/11 10:36:59;;;;;;;6.63;3.22;;;;;;;22.80;60.55;100038.31;1087405;47;20033;-78
2021/09/11 10:38:03;;;;;;;4.97;3.00;;;;;;;22.74;61.21;100039.22;1088465;47;20090;-81
2021/09/11 10:39:08;;;;;;;5.20;3.42;;;;;;;22.62;61.41;100025.50;1087445;54;20037;-80
2021/09/11 10:40:33;;;;;;;5.57;3.40;;;;;;;22.53;61.93;100038.56;1087442;54;20031;-77
2021/09/11 10:41:34;;;;;;;5.97;3.60;;;;;;;22.89;61.32;100036.94;1087235;54;20035;-78
2021/09/11 10:43:19;;;;;;;5.07;3.35;;;;;;;22.99;61.00;100027.41;1087203;47;20038;-78
2021/09/11 10:44:24;;;;;;;6.53;3.67;;;;;;;23.15;60.50;100034.16;1086949;54;20054;-78
2021/09/11 10:45:40;;;;;;;5.20;3.22;;;;;;;23.14;60.70;100030.59;1087105;54;20037;-80
2021/09/11 10:46:49;;;;;;;4.85;3.50;;;;;;;23.22;60.66;100024.00;1087437;54;20419;-80
2021/09/11 10:47:51;;;;;;;4.95;3.38;;;;;;;23.36;60.37;100028.25;1087503;54;20029;-79
2021/09/11 10:48:56;;;;;;;4.97;3.35;;;;;;;23.38;60.48;100032.66;1087138;54;20050;-81
2021/09/11 10:50:12;;;;;;;5.22;3.38;;;;;;;23.36;59.87;100030.97;1088418;47;20034;-77
2021/09/11 10:51:28;;;;;;;5.68;3.35;;;;;;;23.47;59.86;100014.91;1087231;54;20042;-78
2021/09/11 10:52:32;;;;;;;5.30;3.25;;;;;;;23.48;60.20;100020.13;1091808;46;20038;-78
2021/09/11 10:53:36;;;;;;;6.82;3.47;;;;;;;23.59;60.06;100025.84;1087341;54;20054;-78
2021/09/11 10:54:41;;;;;;;4.63;3.00;;;;;;;23.65;59.96;100027.63;1088278;47;20030;-78
2021/09/11 10:55:43;;;;;;;4.93;2.90;;;;;;;23.74;59.45;100018.06;1088676;47;20034;-78
2021/09/11 10:56:53;;;;;;;5.05;3.28;;;;;;;23.63;59.26;100024.31;1087286;54;20078;-78
2021/09/11 10:58:21;;;;;;;4.90;3.08;;;;;;;23.36;59.93;100019.22;1087576;47;20076;-78
2021/09/11 10:59:30;;;;;;;5.00;3.33;;;;;;;23.58;59.62;100016.00;1087788;39;20255;-78
2021/09/11 11:00:35;;;;;;;6.40;3.00;;;;;;;23.41;59.96;100010.34;1087118;54;20038;-78
2021/09/11 11:02:14;;;;;;;5.32;3.35;;;;;;;23.49;59.14;100005.41;1087050;54;20659;-78
2021/09/11 11:03:18;;;;;;;5.55;3.28;;;;;;;23.77;58.87;100003.97;1086632;54;20035;-78
2021/09/11 11:04:25;;;;;;;4.72;3.33;;;;;;;23.95;58.24;100007.69;1087084;54;20031;-78
2021/09/11 11:05:30;;;;;;;5.00;3.55;;;;;;;24.16;58.35;99997.28;1087316;54;20058;-78
2021/09/11 11:06:31;;;;;;;5.20;3.30;;;;;;;24.20;58.02;100010.25;1087063;54;20026;-79
2021/09/11 11:07:37;;;;;;;6.78;3.47;;;;;;;24.20;58.02;99999.31;1088694;39;20295;-79
2021/09/11 11:08:41;;;;;;;5.97;3.00;;;;;;;24.27;57.56;99997.28;1087025;54;20057;-80
2021/09/11 11:09:47;;;;;;;4.57;3.08;;;;;;;24.02;57.85;99996.69;1087338;54;20421;-80
2021/09/11 11:10:51;;;;;;;5.28;3.28;;;;;;;23.94;58.39;99995.97;1087496;47;20034;-78
2021/09/11 11:11:55;;;;;;;5.07;3.13;;;;;;;23.95;57.86;100007.69;1087128;54;20034;-79
2021/09/11 11:13:04;;;;;;;5.03;2.92;;;;;;;23.74;58.36;99998.97;1087188;54;20031;-78
2021/09/11 11:14:06;;;;;;;5.53;3.42;;;;;;;23.70;57.98;99997.78;1088366;47;20041;-78
2021/09/11 11:15:15;;;;;;;5.43;3.08;;;;;;;23.66;57.78;100000.13;1087234;54;20031;-79
2021/09/11 11:16:16;;;;;;;4.90;3.53;;;;;;;24.06;57.30;100003.31;1087352;47;20478;-78
2021/09/11 11:17:21;;;;;;;5.15;3.63;;;;;;;24.14;56.79;99998.34;1088165;47;20111;-79
2021/09/11 11:18:30;;;;;;;4.78;2.95;;;;;;;24.16;56.71;99992.66;1087156;54;20038;-78
2021/09/11 11:19:33;;;;;;;4.60;2.95;;;;;;;23.91;57.21;100001.00;1087356;54;20041;-79
2021/09/11 11:20:37;;;;;;;4.70;3.15;;;;;;;23.75;57.79;99992.44;1087207;54;20111;-78
2021/09/11 11:21:39;;;;;;;4.65;3.30;;;;;;;23.95;57.33;99994.06;1087988;47;20031;-79
2021/09/11 11:22:45;;;;;;;4.90;3.22;;;;;;;24.09;56.89;99995.50;1087510;54;20067;-80
2021/09/11 11:23:47;;;;;;;6.10;3.33;;;;;;;24.07;57.34;99994.06;1087546;54;20046;-79
2021/09/11 11:24:51;;;;;;;5.28;3.47;;;;;;;23.91;57.70;99992.81;1087521;54;20030;-78
2021/09/11 11:25:55;;;;;;;4.80;3.22;;;;;;;24.08;57.23;99993.84;1086944;54;20035;-79
2021/09/11 11:27:00;;;;;;;6.15;3.88;;;;;;;24.08;57.04;99998.47;1124706;36;20112;-77
2021/09/11 11:28:05;;;;;;;4.45;3.05;;;;;;;24.24;56.78;99984.09;1086642;54;20500;-77
2021/09/11 11:29:06;;;;;;;4.53;2.97;;;;;;;24.36;56.50;99977.81;1086794;54;20038;-77
2021/09/11 11:30:14;;;;;;;4.65;3.10;;;;;;;24.24;56.99;99981.38;1086996;54;20038;-78
2021/09/11 11:31:15;;;;;;;5.05;3.20;;;;;;;23.93;57.74;99985.22;1087784;46;20057;-79
2021/09/11 11:32:20;;;;;;;6.20;2.75;;;;;;;24.27;57.04;99977.38;1087031;54;20984;-79
2021/09/11 11:33:24;;;;;;;6.55;3.50;;;;;;;23.82;57.84;99981.44;1123449;36;20251;-78
2021/09/11 11:34:26;;;;;;;5.43;3.47;;;;;;;23.99;57.52;99987.06;1086434;54;20075;-77
2021/09/11 11:35:30;;;;;;;5.07;3.33;;;;;;;23.84;57.81;99982.03;1087492;36;20039;-78
2021/09/11 11:36:32;;;;;;;5.10;3.42;;;;;;;24.04;57.25;99980.91;1085416;54;20045;-79